Time;durP1;ratioP1;P1;durP2;ratioP2;P2;SDS_P1;SDS_P2;PMS_P1;PMS_P2;Temp;Humidity;BMP_temperature;BMP_pressure;BME280_temperature;BME280_humidity;BME280_pressure;Samples;Min_cycle;Max_cycle;Signal;HPM_P1;HPM_P2
2023/06/15 00:02:25;;;;;;;;;;;15.60;90.80;;;;;;5086285;28;19931;-63
2023/06/15 00:04:57;;;;;;;;;;;15.50;91.00;;;;;;5085408;28;19929;-64
2023/06/15 00:07:29;;;;;;;;;;;15.50;91.30;;;;;;5076861;28;19955;-64
2023/06/15 00:10:01;;;;;;;;;;;15.40;91.60;;;;;;5073367;28;19928;-64
2023/06/15 00:12:33;;;;;;;;;;;15.40;91.80;;;;;;5073472;28;19930;-63
2023/06/15 00:15:06;;;;;;;;;;;15.30;92.10;;;;;;5078187;28;19925;-64
2023/06/15 00:17:38;;;;;;;;;;;15.30;92.30;;;;;;5079198;28;19932;-71
2023/06/15 00:20:12;;;;;;;;;;;15.20;92.50;;;;;;5079511;28;20020;-64
2023/06/15 00:22:45;;;;;;;;;;;15.10;93.20;;;;;;5081234;28;19935;-64
2023/06/15 00:25:17;;;;;;;;;;;15.00;93.40;;;;;;5083423;28;19930;-64
2023/06/15 00:27:49;;;;;;;;;;;15.00;94.10;;;;;;5076600;28;20314;-64
2023/06/15 00:30:21;;;;;;;;;;;15.00;94.20;;;;;;5061364;28;19930;-64
2023/06/15 00:32:53;;;;;;;;;;;15.00;94.40;;;;;;5075365;28;20039;-64
2023/06/15 00:35:24;;;;;;;;;;;15.00;94.70;;;;;;5082917;28;19924;-64
2023/06/15 00:37:56;;;;;;;;;;;15.00;94.70;;;;;;5081766;28;19930;-64
2023/06/15 00:40:28;;;;;;;;;;;15.00;95.10;;;;;;5076468;28;19989;-64
2023/06/15 00:43:00;;;;;;;;;;;15.00;95.60;;;;;;5079132;28;19929;-64
2023/06/15 00:45:29;;;;;;;;;;;14.90;95.50;;;;;;5080968;28;19946;-64
2023/06/15 00:48:01;;;;;;;;;;;14.90;95.80;;;;;;5079473;28;19928;-63
2023/06/15 00:50:33;;;;;;;;;;;14.80;96.40;;;;;;5076833;28;19930;-64
2023/06/15 00:53:06;;;;;;;;;;;14.70;96.90;;;;;;5064590;28;20370;-64
2023/06/15 00:55:33;;;;;;;;;;;14.70;97.40;;;;;;5073196;28;19947;-64
2023/06/15 00:58:06;;;;;;;;;;;14.70;98.00;;;;;;5065138;28;20462;-64
2023/06/15 01:00:38;;;;;;;;;;;14.60;98.00;;;;;;5069201;28;19929;-64
2023/06/15 01:03:12;;;;;;;;;;;14.60;98.20;;;;;;5056845;28;19956;-64
2023/06/15 01:05:44;;;;;;;;;;;14.60;98.40;;;;;;5075761;28;20039;-64
2023/06/15 01:08:12;;;;;;;;;;;14.50;98.80;;;;;;5086933;28;19924;-64
2023/06/15 01:10:44;;;;;;;;;;;14.50;99.00;;;;;;5070052;28;19932;-64
2023/06/15 01:13:19;;;;;;;;;;;14.50;99.30;;;;;;5066440;28;19925;-64
2023/06/15 01:15:56;;;;;;;;;;;14.40;99.60;;;;;;5075039;28;19925;-64
2023/06/15 01:18:29;;;;;;;;;;;14.30;99.90;;;;;;5084415;28;19929;-64
2023/06/15 01:21:04;;;;;;;;;;;14.20;99.90;;;;;;5060660;28;19925;-64
2023/06/15 01:23:36;;;;;;;;;;;14.10;99.90;;;;;;5069283;28;19936;-64
2023/06/15 01:26:05;;;;;;;;;;;14.10;99.90;;;;;;5071349;28;19948;-63
2023/06/15 01:28:41;;;;;;;;;;;14.10;99.90;;;;;;5070765;28;19932;-64
2023/06/15 01:31:13;;;;;;;;;;;14.10;99.90;;;;;;5076744;28;20385;-64
2023/06/15 01:33:45;;;;;;;;;;;14.10;99.90;;;;;;5080154;28;19932;-64
2023/06/15 01:36:17;;;;;;;;;;;14.10;99.90;;;;;;5076941;28;20481;-64
2023/06/15 01:38:50;;;;;;;;;;;14.00;99.90;;;;;;5075310;28;19960;-64
2023/06/15 01:41:18;;;;;;;;;;;13.90;99.90;;;;;;5075564;28;19971;-64
2023/06/15 01:43:45;;;;;;;;;;;13.90;99.90;;;;;;5072255;28;20356;-64
2023/06/15 01:46:18;;;;;;;;;;;13.90;99.90;;;;;;5070285;28;20402;-64
2023/06/15 01:48:50;;;;;;;;;;;13.90;99.90;;;;;;5069636;28;19928;-64
2023/06/15 01:51:22;;;;;;;;;;;13.90;99.90;;;;;;5071468;28;19928;-63
2023/06/15 01:53:50;;;;;;;;;;;13.90;99.90;;;;;;5074592;28;19930;-64
2023/06/15 01:56:17;;;;;;;;;;;13.90;99.90;;;;;;5081862;28;19934;-64
2023/06/15 01:58:49;;;;;;;;;;;13.80;99.90;;;;;;5063041;28;20012;-64
2023/06/15 02:01:21;;;;;;;;;;;13.80;99.90;;;;;;5078084;28;19928;-64
2023/06/15 02:03:54;;;;;;;;;;;13.80;99.90;;;;;;5078763;28;20461;-64
2023/06/15 02:06:26;;;;;;;;;;;13.70;99.90;;;;;;5076392;28;20011;-63
2023/06/15 02:08:53;;;;;;;;;;;13.70;99.90;;;;;;5072252;28;20022;-64
2023/06/15 02:11:25;;;;;;;;;;;13.70;99.90;;;;;;5070165;28;20376;-64
2023/06/15 02:13:59;;;;;;;;;;;13.60;99.90;;;;;;5061933;28;19936;-63
2023/06/15 02:16:32;;;;;;;;;;;13.60;99.90;;;;;;5049899;28;19932;-64
2023/06/15 02:19:06;;;;;;;;;;;13.60;99.90;;;;;;5083795;28;19928;-64
2023/06/15 02:21:38;;;;;;;;;;;13.60;99.90;;;;;;5079685;28;19925;-67
2023/06/15 02:24:12;;;;;;;;;;;13.50;99.90;;;;;;5079810;28;20392;-64
2023/06/15 02:26:44;;;;;;;;;;;13.50;99.90;;;;;;5060971;28;19931;-64
2023/06/15 02:29:15;;;;;;;;;;;13.40;99.90;;;;;;5075841;28;19929;-63
2023/06/15 02:31:47;;;;;;;;;;;13.40;99.90;;;;;;5075009;28;19924;-63
2023/06/15 02:34:20;;;;;;;;;;;13.40;99.90;;;;;;5072725;28;20086;-64
2023/06/15 02:36:53;;;;;;;;;;;13.40;99.90;;;;;;5079515;28;20398;-64
2023/06/15 02:39:25;;;;;;;;;;;13.40;99.90;;;;;;5072937;28;19935;-64
2023/06/15 02:41:56;;;;;;;;;;;13.30;99.90;;;;;;5088972;28;20026;-64
2023/06/15 02:44:29;;;;;;;;;;;13.30;99.90;;;;;;5073393;28;19930;-64
2023/06/15 02:46:56;;;;;;;;;;;13.30;99.90;;;;;;5084587;28;19924;-64
2023/06/15 02:49:28;;;;;;;;;;;13.20;99.90;;;;;;5062291;28;19929;-63
2023/06/15 02:52:00;;;;;;;;;;;13.10;99.90;;;;;;5083477;28;19928;-64
2023/06/15 02:54:31;;;;;;;;;;;13.10;99.90;;;;;;5082902;28;19924;-64
2023/06/15 02:57:07;;;;;;;;;;;13.10;99.90;;;;;;5072234;28;19928;-64
2023/06/15 02:59:51;;;;;;;;;;;13.00;99.90;;;;;;5071765;28;19931;-64
2023/06/15 03:02:24;;;;;;;;;;;13.00;99.90;;;;;;5065128;28;19978;-64
2023/06/15 03:04:50;;;;;;;;;;;13.00;99.90;;;;;;5073130;28;19925;-64
2023/06/15 03:07:30;;;;;;;;;;;13.00;99.90;;;;;;5071989;28;19932;-64
2023/06/15 03:10:22;;;;;;;;;;;12.90;99.90;;;;;;5075802;28;20027;-64
2023/06/15 03:12:53;;;;;;;;;;;12.90;99.90;;;;;;5062114;28;19929;-64
2023/06/15 03:15:20;;;;;;;;;;;12.90;99.90;;;;;;5095722;28;19929;-64
2023/06/15 03:17:53;;;;;;;;;;;12.90;99.90;;;;;;5062717;28;20011;-64
2023/06/15 03:20:24;;;;;;;;;;;12.90;99.90;;;;;;5102923;28;19931;-63
2023/06/15 03:22:56;;;;;;;;;;;12.90;99.90;;;;;;5072190;28;19931;-64
2023/06/15 03:25:31;;;;;;;;;;;12.90;99.90;;;;;;5076228;28;19963;-64
2023/06/15 03:28:03;;;;;;;;;;;12.90;99.90;;;;;;5078986;28;20401;-64
2023/06/15 03:30:36;;;;;;;;;;;12.90;99.90;;;;;;5074611;28;19932;-64
2023/06/15 03:33:09;;;;;;;;;;;13.00;99.90;;;;;;5078734;28;19924;-64
2023/06/15 03:35:41;;;;;;;;;;;12.90;99.90;;;;;;5061309;28;19928;-64
2023/06/15 03:38:13;;;;;;;;;;;12.90;99.90;;;;;;5063477;28;19931;-64
2023/06/15 03:40:42;;;;;;;;;;;12.80;99.90;;;;;;5080512;28;19935;-64
2023/06/15 03:43:15;;;;;;;;;;;12.80;99.90;;;;;;5091671;28;19931;-64
2023/06/15 03:45:47;;;;;;;;;;;12.80;99.90;;;;;;5071336;28;19925;-64
2023/06/15 03:48:14;;;;;;;;;;;12.80;99.90;;;;;;5075005;28;20306;-64
2023/06/15 03:50:45;;;;;;;;;;;12.70;99.90;;;;;;5073002;28;20303;-64
2023/06/15 03:53:13;;;;;;;;;;;12.70;99.90;;;;;;5071907;28;19924;-64
2023/06/15 03:55:46;;;;;;;;;;;12.70;99.90;;;;;;5073464;28;19974;-64
2023/06/15 03:58:18;;;;;;;;;;;12.70;99.90;;;;;;5061653;28;19925;-64
2023/06/15 04:00:52;;;;;;;;;;;12.80;99.90;;;;;;5066073;28;19932;-64
2023/06/15 04:03:25;;;;;;;;;;;12.80;99.90;;;;;;5080648;28;19936;-64
2023/06/15 04:05:52;;;;;;;;;;;12.80;99.90;;;;;;5082022;28;19928;-64
2023/06/15 04:08:25;;;;;;;;;;;12.70;99.90;;;;;;5078154;28;19975;-64
2023/06/15 04:10:52;;;;;;;;;;;12.80;99.90;;;;;;5076721;28;19928;-63
2023/06/15 04:13:24;;;;;;;;;;;12.80;99.90;;;;;;5066219;28;19971;-64
2023/06/15 04:15:56;;;;;;;;;;;12.80;99.90;;;;;;5071841;28;19978;-64
2023/06/15 04:18:23;;;;;;;;;;;12.90;99.90;;;;;;5072983;28;19928;-64
2023/06/15 04:20:55;;;;;;;;;;;12.90;99.90;;;;;;5073946;28;19925;-64
2023/06/15 04:23:28;;;;;;;;;;;12.80;99.90;;;;;;5075544;28;19925;-64
2023/06/15 04:26:02;;;;;;;;;;;12.90;99.90;;;;;;5077757;28;20413;-63
2023/06/15 04:28:35;;;;;;;;;;;12.80;99.90;;;;;;5080435;28;19931;-64
2023/06/15 04:31:08;;;;;;;;;;;12.80;99.90;;;;;;5079029;28;20027;-64
2023/06/15 04:33:42;;;;;;;;;;;12.80;99.90;;;;;;5082492;28;20392;-64
2023/06/15 04:36:15;;;;;;;;;;;12.90;99.90;;;;;;5074126;28;19931;-64
2023/06/15 04:38:49;;;;;;;;;;;12.90;99.90;;;;;;5073145;28;20023;-64
2023/06/15 04:41:24;;;;;;;;;;;12.90;99.90;;;;;;5084214;28;19924;-64
2023/06/15 04:43:55;;;;;;;;;;;13.00;99.90;;;;;;5071500;28;19977;-64
2023/06/15 04:46:23;;;;;;;;;;;13.00;99.90;;;;;;5071935;28;19935;-64
2023/06/15 04:48:56;;;;;;;;;;;13.10;99.90;;;;;;5075160;28;19928;-63
2023/06/15 04:51:29;;;;;;;;;;;13.10;99.90;;;;;;5080447;28;19934;-64
2023/06/15 04:53:56;;;;;;;;;;;13.10;99.90;;;;;;5080865;28;20046;-64
2023/06/15 04:56:23;;;;;;;;;;;13.20;99.90;;;;;;5079209;28;19928;-63
2023/06/15 04:58:55;;;;;;;;;;;13.20;99.90;;;;;;5062799;28;19924;-64
2023/06/15 05:01:27;;;;;;;;;;;13.20;99.90;;;;;;5079234;28;19924;-64
2023/06/15 05:04:00;;;;;;;;;;;13.20;99.90;;;;;;5056026;28;19936;-64
2023/06/15 05:06:27;;;;;;;;;;;13.30;99.90;;;;;;5076817;28;19983;-64
2023/06/15 05:08:59;;;;;;;;;;;13.30;99.90;;;;;;5067425;22;19917;-67
2023/06/15 05:11:26;;;;;;;;;;;13.30;99.90;;;;;;5078150;28;19928;-67
2023/06/15 05:13:54;;;;;;;;;;;13.30;99.90;;;;;;5058272;28;20369;-66
2023/06/15 05:16:26;;;;;;;;;;;13.30;99.90;;;;;;5073864;28;19939;-66
2023/06/15 05:18:58;;;;;;;;;;;13.40;99.90;;;;;;5074114;28;19925;-66
2023/06/15 05:21:30;;;;;;;;;;;13.50;99.90;;;;;;5062888;28;20007;-66
2023/06/15 05:24:03;;;;;;;;;;;13.50;99.90;;;;;;5078246;28;19928;-66
2023/06/15 05:26:35;;;;;;;;;;;13.60;99.90;;;;;;5075439;28;19967;-67
2023/06/15 05:29:06;;;;;;;;;;;13.60;99.90;;;;;;5071204;28;19924;-67
2023/06/15 05:31:38;;;;;;;;;;;13.70;99.90;;;;;;5054285;28;19935;-67
2023/06/15 05:34:10;;;;;;;;;;;13.70;99.90;;;;;;5046815;28;19925;-68
2023/06/15 05:36:43;;;;;;;;;;;13.80;99.90;;;;;;5069583;28;19979;-67
2023/06/15 05:39:10;;;;;;;;;;;13.80;99.90;;;;;;5071599;28;19979;-67
2023/06/15 05:41:41;;;;;;;;;;;13.90;99.90;;;;;;5073706;28;19924;-67
2023/06/15 05:44:14;;;;;;;;;;;13.90;99.90;;;;;;5057960;28;19925;-67
2023/06/15 05:46:46;;;;;;;;;;;14.00;99.90;;;;;;5078517;28;19931;-67
2023/06/15 05:49:18;;;;;;;;;;;14.00;99.90;;;;;;5077298;28;19924;-67
2023/06/15 05:51:50;;;;;;;;;;;14.10;99.90;;;;;;5074276;28;20396;-66
2023/06/15 05:54:25;;;;;;;;;;;14.10;99.90;;;;;;5080085;28;20015;-66
2023/06/15 05:56:57;;;;;;;;;;;14.20;99.90;;;;;;5076121;28;19936;-66
2023/06/15 05:59:29;;;;;;;;;;;14.20;99.90;;;;;;5051240;28;20415;-66
2023/06/15 06:02:03;;;;;;;;;;;14.30;99.90;;;;;;5073687;28;19970;-67
2023/06/15 06:04:33;;;;;;;;;;;14.40;99.90;;;;;;5072809;28;20424;-66
2023/06/15 06:07:06;;;;;;;;;;;14.50;99.90;;;;;;5069551;28;19936;-67
2023/06/15 06:09:38;;;;;;;;;;;14.60;99.90;;;;;;5066056;28;19924;-66
2023/06/15 06:12:13;;;;;;;;;;;14.70;99.90;;;;;;5074349;28;19925;-67
2023/06/15 06:14:45;;;;;;;;;;;14.80;99.90;;;;;;5072542;28;19925;-66
2023/06/15 06:17:17;;;;;;;;;;;14.80;99.90;;;;;;5086034;28;19935;-67
2023/06/15 06:19:51;;;;;;;;;;;14.80;99.90;;;;;;5082247;28;19931;-67
2023/06/15 06:22:24;;;;;;;;;;;14.90;99.90;;;;;;5082492;28;19928;-67
2023/06/15 06:24:56;;;;;;;;;;;15.00;99.90;;;;;;5059079;28;19932;-67
2023/06/15 06:27:23;;;;;;;;;;;15.10;99.90;;;;;;5081080;28;20023;-66
2023/06/15 06:29:55;;;;;;;;;;;15.10;99.90;;;;;;5081679;28;19931;-67
2023/06/15 06:32:22;;;;;;;;;;;15.10;99.90;;;;;;5083516;28;19935;-68
2023/06/15 06:34:54;;;;;;;;;;;15.10;99.90;;;;;;5083094;28;20400;-68
2023/06/15 06:37:26;;;;;;;;;;;15.20;99.90;;;;;;5069457;28;19935;-67
2023/06/15 06:39:57;;;;;;;;;;;15.30;99.90;;;;;;5082654;28;19929;-67
2023/06/15 06:42:30;;;;;;;;;;;15.40;99.90;;;;;;5086019;28;19939;-66
2023/06/15 06:45:02;;;;;;;;;;;15.50;99.90;;;;;;5085041;28;20015;-67
2023/06/15 06:47:34;;;;;;;;;;;15.60;99.90;;;;;;5079975;28;19934;-68
2023/06/15 06:50:01;;;;;;;;;;;15.70;99.90;;;;;;5082795;28;20014;-66
2023/06/15 06:52:32;;;;;;;;;;;15.80;99.90;;;;;;5080462;28;19931;-67
2023/06/15 06:55:04;;;;;;;;;;;16.00;99.90;;;;;;5080802;28;20486;-67
2023/06/15 06:57:31;;;;;;;;;;;16.10;99.90;;;;;;5081196;28;19928;-66
2023/06/15 07:00:04;;;;;;;;;;;16.20;99.90;;;;;;5082234;28;19932;-67
2023/06/15 07:02:35;;;;;;;;;;;16.30;99.90;;;;;;5080553;28;20014;-67
2023/06/15 07:05:02;;;;;;;;;;;16.50;99.90;;;;;;5079247;28;19924;-68
2023/06/15 07:07:29;;;;;;;;;;;16.60;99.90;;;;;;5084534;28;19931;-67
2023/06/15 07:10:01;;;;;;;;;;;16.70;99.90;;;;;;5076513;28;20500;-68
2023/06/15 07:12:28;;;;;;;;;;;16.80;99.90;;;;;;5087449;28;19931;-67
2023/06/15 07:14:55;;;;;;;;;;;17.00;99.90;;;;;;5083035;28;20024;-66
2023/06/15 07:17:22;;;;;;;;;;;17.10;99.90;;;;;;5082831;28;20351;-68
2023/06/15 07:19:49;;;;;;;;;;;17.20;99.90;;;;;;5082268;28;19928;-68
2023/06/15 07:22:20;;;;;;;;;;;17.30;99.90;;;;;;5066801;28;19931;-68
2023/06/15 07:24:47;;;;;;;;;;;17.40;99.90;;;;;;5078033;28;20446;-68
2023/06/15 07:27:20;;;;;;;;;;;17.50;99.90;;;;;;5080805;28;20324;-68
2023/06/15 07:29:51;;;;;;;;;;;17.70;99.90;;;;;;5079758;28;19924;-68
2023/06/15 07:32:23;;;;;;;;;;;17.90;99.90;;;;;;5080028;28;19924;-67
2023/06/15 07:34:55;;;;;;;;;;;18.00;99.90;;;;;;5085108;28;19951;-67
2023/06/15 07:37:27;;;;;;;;;;;18.10;99.90;;;;;;5066024;28;20424;-67
2023/06/15 07:39:58;;;;;;;;;;;18.20;99.90;;;;;;5079121;28;19924;-68
2023/06/15 07:42:30;;;;;;;;;;;18.30;99.90;;;;;;5083491;28;19935;-66
2023/06/15 07:45:03;;;;;;;;;;;18.40;99.90;;;;;;5083908;28;19956;-68
2023/06/15 07:47:35;;;;;;;;;;;18.50;99.90;;;;;;5082188;28;19972;-68
2023/06/15 07:50:06;;;;;;;;;;;18.50;99.90;;;;;;5077560;28;20007;-67
2023/06/15 07:52:38;;;;;;;;;;;18.60;99.90;;;;;;5078180;28;19947;-67
2023/06/15 07:55:10;;;;;;;;;;;18.70;99.90;;;;;;5054251;28;19924;-67
2023/06/15 07:57:42;;;;;;;;;;;18.70;99.90;;;;;;5080608;28;20400;-67
2023/06/15 08:00:14;;;;;;;;;;;18.80;99.90;;;;;;5083197;28;19974;-68
2023/06/15 08:02:41;;;;;;;;;;;18.90;99.90;;;;;;5088497;28;20387;-67
2023/06/15 08:05:13;;;;;;;;;;;19.10;99.90;;;;;;5085214;28;19925;-68
2023/06/15 08:07:44;;;;;;;;;;;19.20;99.90;;;;;;5076513;28;19930;-68
2023/06/15 08:10:17;;;;;;;;;;;19.30;99.90;;;;;;5064064;28;19924;-67
2023/06/15 08:12:49;;;;;;;;;;;19.50;99.90;;;;;;5069696;28;20376;-68
2023/06/15 08:15:21;;;;;;;;;;;19.50;99.90;;;;;;5064035;28;20296;-68
2023/06/15 08:17:53;;;;;;;;;;;19.60;99.90;;;;;;5080605;28;19959;-68
2023/06/15 08:20:26;;;;;;;;;;;19.70;99.90;;;;;;5079982;28;20027;-68
2023/06/15 08:22:57;;;;;;;;;;;19.80;99.90;;;;;;5079167;28;19954;-67
2023/06/15 08:25:33;;;;;;;;;;;19.90;99.90;;;;;;5087618;28;19930;-68
2023/06/15 08:28:05;;;;;;;;;;;20.00;99.90;;;;;;5086959;28;20055;-67
2023/06/15 08:30:37;;;;;;;;;;;20.20;99.90;;;;;;5082388;28;19924;-67
2023/06/15 08:33:08;;;;;;;;;;;20.30;99.90;;;;;;5073063;28;20337;-68
2023/06/15 08:35:40;;;;;;;;;;;20.40;99.90;;;;;;5080608;28;20052;-67
2023/06/15 08:38:12;;;;;;;;;;;20.60;99.90;;;;;;5080493;28;20408;-66
2023/06/15 08:40:45;;;;;;;;;;;20.70;99.90;;;;;;5080770;28;20023;-66
2023/06/15 08:43:18;;;;;;;;;;;20.80;99.90;;;;;;5076279;28;19928;-66
2023/06/15 08:45:53;;;;;;;;;;;20.80;99.30;;;;;;5080666;28;19929;-68
2023/06/15 08:48:21;;;;;;;;;;;20.80;99.80;;;;;;5080356;28;19931;-67
2023/06/15 08:50:53;;;;;;;;;;;20.90;99.10;;;;;;5072208;28;20368;-68
2023/06/15 08:53:27;;;;;;;;;;;21.00;99.10;;;;;;5080934;28;19931;-66
2023/06/15 08:55:59;;;;;;;;;;;21.20;98.50;;;;;;5071036;28;19932;-67
2023/06/15 08:58:31;;;;;;;;;;;21.30;98.00;;;;;;5078708;28;19935;-67
2023/06/15 09:01:02;;;;;;;;;;;21.30;97.40;;;;;;5077235;28;20413;-67
2023/06/15 09:03:35;;;;;;;;;;;21.40;97.50;;;;;;5070879;28;20281;-67
2023/06/15 09:06:07;;;;;;;;;;;21.50;98.00;;;;;;5080041;28;19934;-68
2023/06/15 09:08:34;;;;;;;;;;;21.70;96.80;;;;;;5074156;28;19929;-67
2023/06/15 09:11:07;;;;;;;;;;;21.80;96.60;;;;;;5077705;28;20319;-68
2023/06/15 09:13:39;;;;;;;;;;;21.90;96.70;;;;;;5077820;28;19930;-67
2023/06/15 09:16:10;;;;;;;;;;;22.00;95.50;;;;;;5082062;28;19932;-67
2023/06/15 09:18:44;;;;;;;;;;;22.20;95.70;;;;;;5068775;28;19925;-67
2023/06/15 09:21:12;;;;;;;;;;;22.30;95.20;;;;;;5067273;28;20355;-68
2023/06/15 09:23:45;;;;;;;;;;;22.30;95.20;;;;;;5074294;28;19928;-66
2023/06/15 09:26:21;;;;;;;;;;;22.20;93.40;;;;;;5077742;28;19968;-67
2023/06/15 09:28:48;;;;;;;;;;;22.30;93.40;;;;;;5079443;28;20327;-67
2023/06/15 09:31:33;;;;;;;;;;;22.50;93.00;;;;;;5057715;28;19936;-68
2023/06/15 09:34:06;;;;;;;;;;;22.40;92.10;;;;;;5076467;28;19962;-67
2023/06/15 09:36:41;;;;;;;;;;;22.30;92.50;;;;;;5073729;28;20022;-67
2023/06/15 09:39:11;;;;;;;;;;;22.00;92.40;;;;;;5072932;28;19939;-67
2023/06/15 09:41:51;;;;;;;;;;;21.80;92.00;;;;;;5070077;28;19928;-66
2023/06/15 09:44:23;;;;;;;;;;;21.70;92.70;;;;;;5076076;28;19924;-67
2023/06/15 09:46:59;;;;;;;;;;;21.60;92.80;;;;;;5090348;28;19928;-67
2023/06/15 09:49:27;;;;;;;;;;;21.60;92.40;;;;;;5088478;28;20384;-66
2023/06/15 09:52:00;;;;;;;;;;;21.50;92.10;;;;;;5085414;28;19928;-67
2023/06/15 09:54:33;;;;;;;;;;;21.50;92.40;;;;;;5084615;28;19962;-68
2023/06/15 09:57:05;;;;;;;;;;;21.50;92.00;;;;;;5081170;28;19924;-68
2023/06/15 09:59:37;;;;;;;;;;;21.50;92.50;;;;;;5082281;28;19935;-68
2023/06/15 10:02:10;;;;;;;;;;;21.60;91.70;;;;;;5091190;28;19924;-68
2023/06/15 10:04:43;;;;;;;;;;;21.70;92.00;;;;;;5072631;28;20388;-66
2023/06/15 10:07:17;;;;;;;;;;;22.10;91.40;;;;;;5075600;28;19935;-67
2023/06/15 10:09:48;;;;;;;;;;;22.60;91.60;;;;;;5076182;28;19925;-68
2023/06/15 10:12:23;;;;;;;;;;;23.20;90.40;;;;;;5077837;28;19931;-68
2023/06/15 10:14:58;;;;;;;;;;;23.70;88.00;;;;;;5081722;28;19928;-68
2023/06/15 10:17:32;;;;;;;;;;;24.00;86.40;;;;;;5085082;28;19928;-67
2023/06/15 10:20:07;;;;;;;;;;;24.10;84.30;;;;;;5082344;28;19961;-67
2023/06/15 10:22:45;;;;;;;;;;;24.00;83.80;;;;;;5087039;28;19984;-68
2023/06/15 10:25:13;;;;;;;;;;;23.80;83.40;;;;;;5089939;28;19970;-68
2023/06/15 10:27:45;;;;;;;;;;;23.70;82.40;;;;;;5075729;28;20400;-67
2023/06/15 10:30:40;;;;;;;;;;;23.60;82.90;;;;;;5074967;28;20376;-67
2023/06/15 10:33:07;;;;;;;;;;;23.60;82.10;;;;;;5074398;28;19934;-67
2023/06/15 10:35:42;;;;;;;;;;;23.50;80.50;;;;;;5057158;28;20412;-67
2023/06/15 10:38:22;;;;;;;;;;;23.40;79.90;;;;;;5088400;28;19928;-68
2023/06/15 10:40:54;;;;;;;;;;;23.60;81.80;;;;;;5079256;28;20307;-68
2023/06/15 10:43:29;;;;;;;;;;;23.80;81.90;;;;;;5082498;28;19935;-67
2023/06/15 10:46:02;;;;;;;;;;;23.90;82.70;;;;;;5078408;28;20297;-67
2023/06/15 10:48:37;;;;;;;;;;;23.90;81.20;;;;;;5068470;28;19924;-67
2023/06/15 10:51:12;;;;;;;;;;;23.80;82.10;;;;;;5074480;28;19932;-67
2023/06/15 10:53:45;;;;;;;;;;;23.60;81.80;;;;;;5079983;28;19929;-66
2023/06/15 10:56:19;;;;;;;;;;;23.60;83.50;;;;;;5085519;28;20518;-68
2023/06/15 10:58:51;;;;;;;;;;;23.50;81.60;;;;;;5078739;28;19935;-67
2023/06/15 11:01:20;;;;;;;;;;;23.50;80.00;;;;;;5081957;28;19978;-67
2023/06/15 11:03:52;;;;;;;;;;;23.40;80.10;;;;;;5076583;28;19935;-67
2023/06/15 11:06:33;;;;;;;;;;;23.30;80.30;;;;;;5084803;28;19932;-68
2023/06/15 11:09:07;;;;;;;;;;;23.50;78.60;;;;;;5076204;28;19928;-68
2023/06/15 11:11:38;;;;;;;;;;;23.70;77.70;;;;;;5083916;28;19931;-67
2023/06/15 11:17:02;;;;;;;;;;;24.10;79.60;;;;;;5038760;28;19925;-65
2023/06/15 11:19:41;;;;;;;;;;;24.50;78.50;;;;;;5046861;28;19925;-65
2023/06/15 11:22:25;;;;;;;;;;;24.80;74.90;;;;;;5057338;28;20463;-65
2023/06/15 11:24:55;;;;;;;;;;;24.90;73.70;;;;;;5047802;28;19966;-65
2023/06/15 11:27:27;;;;;;;;;;;25.00;74.00;;;;;;5065316;28;19932;-65
2023/06/15 11:30:00;;;;;;;;;;;25.30;75.10;;;;;;5052589;28;19924;-65
2023/06/15 11:32:32;;;;;;;;;;;25.30;72.20;;;;;;5066145;28;19932;-65
2023/06/15 11:35:05;;;;;;;;;;;25.50;72.20;;;;;;5071343;28;19936;-65
2023/06/15 11:37:31;;;;;;;;;;;25.70;70.90;;;;;;5069259;28;19960;-65
2023/06/15 11:40:06;;;;;;;;;;;26.00;72.40;;;;;;5052748;28;19932;-65
2023/06/15 11:42:38;;;;;;;;;;;26.10;66.70;;;;;;5065160;28;19935;-67
2023/06/15 11:45:18;;;;;;;;;;;25.90;66.30;;;;;;5060312;28;19931;-65
2023/06/15 11:47:50;;;;;;;;;;;25.70;65.90;;;;;;5064659;28;20362;-65
2023/06/15 11:50:23;;;;;;;;;;;25.50;67.00;;;;;;5072696;28;20420;-65
2023/06/15 11:52:55;;;;;;;;;;;25.10;67.00;;;;;;5069623;28;19929;-65
2023/06/15 11:55:28;;;;;;;;;;;24.90;67.90;;;;;;5071672;28;19986;-65
2023/06/15 11:58:06;;;;;;;;;;;24.80;66.20;;;;;;5051749;28;19967;-65
2023/06/15 12:00:38;;;;;;;;;;;24.50;68.20;;;;;;5066277;28;19991;-65
2023/06/15 12:03:11;;;;;;;;;;;24.40;68.00;;;;;;5064554;28;20007;-64
2023/06/15 12:05:42;;;;;;;;;;;24.20;68.10;;;;;;5069456;28;19955;-65
2023/06/15 12:08:15;;;;;;;;;;;24.10;69.00;;;;;;5060553;28;20443;-64
2023/06/15 12:10:47;;;;;;;;;;;24.00;68.50;;;;;;5057520;28;19943;-64
2023/06/15 12:13:19;;;;;;;;;;;24.00;68.30;;;;;;5067373;28;19931;-64
2023/06/15 12:15:51;;;;;;;;;;;23.90;69.20;;;;;;5070070;28;19928;-65
2023/06/15 12:18:23;;;;;;;;;;;23.90;69.60;;;;;;5050143;28;19924;-65
2023/06/15 12:20:55;;;;;;;;;;;23.90;70.00;;;;;;5065639;28;20047;-65
2023/06/15 12:23:27;;;;;;;;;;;24.00;69.90;;;;;;5068345;28;20447;-64
2023/06/15 12:26:00;;;;;;;;;;;24.00;69.90;;;;;;5065494;28;19928;-65
2023/06/15 12:28:27;;;;;;;;;;;24.00;72.40;;;;;;5060241;28;20012;-65
2023/06/15 12:31:04;;;;;;;;;;;24.20;72.90;;;;;;5061455;28;19928;-64
2023/06/15 12:33:39;;;;;;;;;;;24.30;73.80;;;;;;5058855;28;20438;-64
2023/06/15 12:36:12;;;;;;;;;;;24.50;72.40;;;;;;5058475;28;19940;-65
2023/06/15 12:38:46;;;;;;;;;;;24.80;72.30;;;;;;5074769;28;19925;-65
2023/06/15 12:41:14;;;;;;;;;;;25.10;70.70;;;;;;5065745;28;19960;-64
2023/06/15 12:43:45;;;;;;;;;;;25.50;70.50;;;;;;5068568;28;20014;-65
2023/06/15 12:46:17;;;;;;;;;;;25.80;70.40;;;;;;5077615;28;19928;-65
2023/06/15 12:48:49;;;;;;;;;;;26.10;68.40;;;;;;5086242;28;19925;-65
2023/06/15 12:51:21;;;;;;;;;;;26.30;65.70;;;;;;5069184;28;20429;-65
2023/06/15 12:53:54;;;;;;;;;;;26.20;65.40;;;;;;5071258;28;19932;-65
2023/06/15 12:56:29;;;;;;;;;;;26.40;64.50;;;;;;5064754;28;19940;-65
2023/06/15 12:59:00;;;;;;;;;;;26.50;63.90;;;;;;5068970;28;19928;-65
2023/06/15 13:01:27;;;;;;;;;;;26.50;62.80;;;;;;5066235;28;20295;-65
2023/06/15 13:03:59;;;;;;;;;;;26.50;63.90;;;;;;5082455;28;19932;-64
2023/06/15 13:06:31;;;;;;;;;;;26.80;62.80;;;;;;5075969;28;20016;-65
2023/06/15 13:09:02;;;;;;;;;;;26.90;62.70;;;;;;5070213;28;19928;-65
2023/06/15 13:11:34;;;;;;;;;;;27.20;60.90;;;;;;5069142;28;19935;-65
2023/06/15 13:14:08;;;;;;;;;;;27.00;58.90;;;;;;5068722;28;19939;-64
2023/06/15 13:16:39;;;;;;;;;;;27.10;60.00;;;;;;5069407;28;19935;-65
2023/06/15 13:19:11;;;;;;;;;;;27.10;59.70;;;;;;5064792;28;20308;-65
2023/06/15 13:21:38;;;;;;;;;;;27.00;59.60;;;;;;5082808;28;19975;-62
2023/06/15 13:24:10;;;;;;;;;;;26.70;60.70;;;;;;5062731;28;19940;-65
2023/06/15 13:26:37;;;;;;;;;;;26.70;61.50;;;;;;5068213;28;19928;-65
2023/06/15 13:29:11;;;;;;;;;;;26.80;59.40;;;;;;5053300;28;19925;-65
2023/06/15 13:31:43;;;;;;;;;;;26.90;59.20;;;;;;5069832;28;19925;-66
2023/06/15 13:34:15;;;;;;;;;;;26.90;58.60;;;;;;5068167;28;19936;-65
2023/06/15 13:36:46;;;;;;;;;;;27.30;61.00;;;;;;5068845;28;20714;-65
2023/06/15 13:39:13;;;;;;;;;;;27.60;60.50;;;;;;5067935;28;20366;-65
2023/06/15 13:41:40;;;;;;;;;;;27.70;59.30;;;;;;5064671;28;20526;-65
2023/06/15 13:44:12;;;;;;;;;;;27.80;58.40;;;;;;5072576;28;20378;-65
2023/06/15 13:46:44;;;;;;;;;;;27.90;57.10;;;;;;5054348;28;20011;-65
2023/06/15 13:49:15;;;;;;;;;;;28.00;58.10;;;;;;5068404;28;19979;-65
2023/06/15 13:51:47;;;;;;;;;;;27.70;57.70;;;;;;5054471;28;20391;-66
2023/06/15 13:54:20;;;;;;;;;;;27.30;57.00;;;;;;5064671;28;19928;-66
2023/06/15 13:56:47;;;;;;;;;;;26.80;57.50;;;;;;5045336;28;19925;-65
2023/06/15 13:59:19;;;;;;;;;;;26.30;58.80;;;;;;5068930;28;19932;-65
2023/06/15 14:01:51;;;;;;;;;;;26.40;59.60;;;;;;5064426;28;19928;-65
2023/06/15 14:04:23;;;;;;;;;;;26.30;58.60;;;;;;5064928;28;19928;-65
2023/06/15 14:06:55;;;;;;;;;;;26.20;58.30;;;;;;5069841;28;19928;-65
2023/06/15 14:09:21;;;;;;;;;;;25.90;58.40;;;;;;5066019;28;19931;-65
2023/06/15 14:11:57;;;;;;;;;;;25.80;58.60;;;;;;5060585;28;20449;-65
2023/06/15 14:14:30;;;;;;;;;;;25.60;59.20;;;;;;5058945;28;19936;-64
2023/06/15 14:17:02;;;;;;;;;;;25.60;59.60;;;;;;5062649;28;19924;-65
2023/06/15 14:19:35;;;;;;;;;;;25.50;59.20;;;;;;5068575;28;20010;-65
2023/06/15 14:22:02;;;;;;;;;;;25.50;59.40;;;;;;5062725;28;19931;-65
2023/06/15 14:24:34;;;;;;;;;;;25.60;58.50;;;;;;5065854;28;19935;-64
2023/06/15 14:27:06;;;;;;;;;;;25.90;58.80;;;;;;5065933;28;19928;-65
2023/06/15 14:29:33;;;;;;;;;;;26.00;58.00;;;;;;5071864;28;19928;-65
2023/06/15 14:32:05;;;;;;;;;;;26.10;59.00;;;;;;5071195;28;20400;-65
2023/06/15 14:34:37;;;;;;;;;;;26.00;57.30;;;;;;5071225;28;19978;-65
2023/06/15 14:37:09;;;;;;;;;;;25.60;57.90;;;;;;5075778;28;19925;-64
2023/06/15 14:39:41;;;;;;;;;;;25.20;57.70;;;;;;5067495;28;19951;-65
2023/06/15 14:42:14;;;;;;;;;;;25.10;58.80;;;;;;5061996;28;19931;-65
2023/06/15 14:44:45;;;;;;;;;;;25.10;58.70;;;;;;5064781;28;20518;-64
2023/06/15 14:47:12;;;;;;;;;;;25.10;58.80;;;;;;5064859;28;19924;-65